Time,TemperatureF,DewpointF,PressureIn,WindDirection,WindDirectionDegrees,WindSpeedMPH,WindSpeedGustMPH,Humidity,HourlyPrecipIn,Conditions,Clouds,dailyrainin,SoftwareType,DateUTC
2014-01-26 00:02:00,51.4,28.0,30.02,North,360,0.0,0.0,39,0.00,,,0.00,Rainwise IP-100,2014-01-26 06:02:00,
2014-01-26 00:07:00,51.7,28.0,30.02,North,360,0.0,0.0,39,0.00,,,0.00,Rainwise IP-100,2014-01-26 06:07:00,
2014-01-26 00:12:00,51.5,29.0,30.02,North,360,0.0,0.0,40,0.00,,,0.00,Rainwise IP-100,2014-01-26 06:12:00,
2014-01-26 00:17:00,51.2,28.0,30.02,North,360,0.0,0.0,40,0.00,,,0.00,Rainwise IP-100,2014-01-26 06:17:00,
2014-01-26 00:22:00,51.3,28.0,30.01,North,360,0.0,0.0,39,0.00,,,0.00,Rainwise IP-100,2014-01-26 06:22:00,
2014-01-26 00:27:00,51.6,28.0,30.01,NNE,22,0.0,0.0,39,0.00,,,0.00,Rainwise IP-100,2014-01-26 06:27:00,
2014-01-26 00:32:00,51.9,28.0,30.00,East,90,5.6,5.6,39,0.00,,,0.00,Rainwise IP-100,2014-01-26 06:32:00,
2014-01-26 00:37:00,52.3,28.0,30.01,East,90,0.0,6.0,39,0.00,,,0.00,Rainwise IP-100,2014-01-26 06:37:00,
2014-01-26 00:42:00,52.2,28.0,30.01,East,90,0.0,1.0,39,0.00,,,0.00,Rainwise IP-100,2014-01-26 06:42:00,
2014-01-26 00:47:00,51.8,29.0,30.00,SSE,157,3.0,4.0,40,0.00,,,0.00,Rainwise IP-100,2014-01-26 06:47:00,
2014-01-26 00:52:00,51.6,29.0,30.00,SW,225,2.3,3.0,40,0.00,,,0.00,Rainwise IP-100,2014-01-26 06:52:00,
2014-01-26 00:57:00,51.8,29.0,30.00,SSW,202,2.1,3.0,40,0.00,,,0.00,Rainwise IP-100,2014-01-26 06:57:00,
2014-01-26 01:02:00,52.1,28.0,30.00,SSW,202,2.1,3.0,39,0.00,,,0.00,Rainwise IP-100,2014-01-26 07:02:00,
2014-01-26 01:07:00,52.3,28.0,30.00,SSW,202,0.0,2.0,39,0.00,,,0.00,Rainwise IP-100,2014-01-26 07:07:00,
2014-01-26 01:12:00,52.6,28.0,30.00,SSW,202,0.0,0.0,38,0.00,,,0.00,Rainwise IP-100,2014-01-26 07:12:00,
2014-01-26 01:17:00,52.7,28.0,29.99,SSW,202,0.0,0.0,38,0.00,,,0.00,Rainwise IP-100,2014-01-26 07:17:00,
2014-01-26 01:22:00,52.7,28.0,29.99,SSW,202,0.0,0.0,38,0.00,,,0.00,Rainwise IP-100,2014-01-26 07:22:00,
2014-01-26 01:27:00,52.5,28.0,29.99,SSW,202,1.2,1.2,38,0.00,,,0.00,Rainwise IP-100,2014-01-26 07:27:00,
2014-01-26 01:32:00,52.2,28.0,29.99,SSW,202,1.4,1.4,39,0.00,,,0.00,Rainwise IP-100,2014-01-26 07:32:00,
2014-01-26 01:37:00,52.1,28.0,29.99,SSW,202,0.0,2.0,39,0.00,,,0.00,Rainwise IP-100,2014-01-26 07:37:00,
2014-01-26 01:42:00,52.1,28.0,29.98,SSW,202,0.0,1.0,39,0.00,,,0.00,Rainwise IP-100,2014-01-26 07:42:00,
2014-01-26 01:47:00,52.0,28.0,29.99,SSW,202,0.0,0.0,39,0.00,,,0.00,Rainwise IP-100,2014-01-26 07:47:00,
2014-01-26 01:52:00,51.8,28.0,29.98,SSW,202,0.0,0.0,39,0.00,,,0.00,Rainwise IP-100,2014-01-26 07:52:00,
2014-01-26 01:57:00,51.7,29.0,29.98,SSW,202,0.0,0.0,40,0.00,,,0.00,Rainwise IP-100,2014-01-26 07:57:00,
2014-01-26 02:02:00,51.5,29.0,29.98,SSW,202,0.0,0.0,40,0.00,,,0.00,Rainwise IP-100,2014-01-26 08:02:00,
2014-01-26 02:07:00,51.2,28.0,29.98,SSW,202,0.0,0.0,40,0.00,,,0.00,Rainwise IP-100,2014-01-26 08:07:00,
2014-01-26 02:12:00,51.0,29.0,29.97,SSW,202,0.0,0.0,41,0.00,,,0.00,Rainwise IP-100,2014-01-26 08:12:00,
2014-01-26 02:17:00,50.9,29.0,29.97,SSW,202,1.2,1.2,41,0.00,,,0.00,Rainwise IP-100,2014-01-26 08:17:00,
2014-01-26 02:22:00,50.7,28.0,29.98,SSW,202,0.0,1.0,41,0.00,,,0.00,Rainwise IP-100,2014-01-26 08:22:00,
2014-01-26 02:27:00,50.6,29.0,29.97,SSW,202,1.2,2.0,42,0.00,,,0.00,Rainwise IP-100,2014-01-26 08:27:00,
2014-01-26 02:32:00,50.6,29.0,29.97,SSW,202,0.0,1.0,42,0.00,,,0.00,Rainwise IP-100,2014-01-26 08:32:00,
2014-01-26 02:37:00,50.7,29.0,29.97,SSW,202,1.2,2.0,42,0.00,,,0.00,Rainwise IP-100,2014-01-26 08:37:00,
2014-01-26 02:42:00,50.7,29.0,29.97,SSW,202,0.0,1.0,42,0.00,,,0.00,Rainwise IP-100,2014-01-26 08:42:00,
2014-01-26 02:47:00,50.9,29.0,29.97,SSW,202,0.0,1.0,42,0.00,,,0.00,Rainwise IP-100,2014-01-26 08:47:00,
2014-01-26 02:52:00,51.0,29.0,29.96,SSW,202,0.0,0.0,42,0.00,,,0.00,Rainwise IP-100,2014-01-26 08:52:00,
2014-01-26 02:57:00,50.9,29.0,29.96,SSW,202,0.0,1.0,42,0.00,,,0.00,Rainwise IP-100,2014-01-26 08:57:00,
2014-01-26 03:02:00,50.9,29.0,29.96,SSW,202,0.0,0.0,42,0.00,,,0.00,Rainwise IP-100,2014-01-26 09:02:00,
2014-01-26 03:07:00,50.9,29.0,29.96,SSW,202,0.0,0.0,42,0.00,,,0.00,Rainwise IP-100,2014-01-26 09:07:00,
2014-01-26 03:12:00,50.7,29.0,29.96,SSW,202,0.0,1.0,42,0.00,,,0.00,Rainwise IP-100,2014-01-26 09:12:00,
2014-01-26 03:17:00,50.8,29.0,29.96,SSW,202,0.0,0.0,42,0.00,,,0.00,Rainwise IP-100,2014-01-26 09:17:00,
2014-01-26 03:22:00,51.0,29.0,29.96,SSW,202,0.0,0.0,42,0.00,,,0.00,Rainwise IP-100,2014-01-26 09:22:00,
2014-01-26 03:27:00,50.9,29.0,29.95,SSW,202,0.0,0.0,43,0.00,,,0.00,Rainwise IP-100,2014-01-26 09:27:00,
2014-01-26 03:32:00,50.7,29.0,29.95,SSW,202,0.0,0.0,43,0.00,,,0.00,Rainwise IP-100,2014-01-26 09:32:00,
2014-01-26 03:37:00,50.5,29.0,29.95,SSW,202,0.0,0.0,43,0.00,,,0.00,Rainwise IP-100,2014-01-26 09:37:00,
2014-01-26 03:42:00,50.3,28.0,29.95,SSW,202,0.0,0.0,43,0.00,,,0.00,Rainwise IP-100,2014-01-26 09:42:00,
2014-01-26 03:47:00,49.9,28.0,29.95,SSW,202,0.0,0.0,43,0.00,,,0.00,Rainwise IP-100,2014-01-26 09:47:00,
2014-01-26 03:52:00,49.5,29.0,29.94,SSW,202,0.0,0.0,44,0.00,,,0.00,Rainwise IP-100,2014-01-26 09:52:00,
2014-01-26 03:57:00,49.2,28.0,29.94,SSW,202,0.0,0.0,44,0.00,,,0.00,Rainwise IP-100,2014-01-26 09:57:00,
2014-01-26 04:02:00,49.0,29.0,29.94,SSW,202,0.0,0.0,45,0.00,,,0.00,Rainwise IP-100,2014-01-26 10:02:00,
2014-01-26 04:07:00,48.7,29.0,29.94,SSW,202,0.0,0.0,45,0.00,,,0.00,Rainwise IP-100,2014-01-26 10:07:00,
2014-01-26 04:12:00,48.3,28.0,29.94,SSW,202,0.0,0.0,45,0.00,,,0.00,Rainwise IP-100,2014-01-26 10:12:00,
2014-01-26 04:17:00,47.8,28.0,29.94,SSW,202,0.0,0.0,46,0.00,,,0.00,Rainwise IP-100,2014-01-26 10:17:00,
2014-01-26 04:22:00,47.4,29.0,29.93,SSW,202,0.0,0.0,47,0.00,,,0.00,Rainwise IP-100,2014-01-26 10:22:00,
2014-01-26 04:27:00,47.7,29.0,29.94,SSW,202,0.0,0.0,47,0.00,,,0.00,Rainwise IP-100,2014-01-26 10:27:00,
2014-01-26 04:32:00,48.2,29.0,29.94,SSW,202,0.0,0.0,47,0.00,,,0.00,Rainwise IP-100,2014-01-26 10:32:00,
2014-01-26 04:37:00,48.4,29.0,29.93,SSW,202,0.0,0.0,46,0.00,,,0.00,Rainwise IP-100,2014-01-26 10:37:00,
2014-01-26 04:42:00,48.4,29.0,29.93,SSW,202,0.0,0.0,46,0.00,,,0.00,Rainwise IP-100,2014-01-26 10:42:00,
2014-01-26 04:47:00,48.2,29.0,29.92,SSW,202,0.0,0.0,46,0.00,,,0.00,Rainwise IP-100,2014-01-26 10:47:00,
2014-01-26 04:52:00,48.1,29.0,29.92,SSW,202,0.0,1.0,47,0.00,,,0.00,Rainwise IP-100,2014-01-26 10:52:00,
2014-01-26 04:57:00,48.2,29.0,29.92,SSE,157,1.2,2.0,46,0.00,,,0.00,Rainwise IP-100,2014-01-26 10:57:00,
2014-01-26 05:02:00,48.3,29.0,29.92,SSE,157,1.4,1.4,46,0.00,,,0.00,Rainwise IP-100,2014-01-26 11:02:00,
2014-01-26 05:07:00,48.2,29.0,29.92,SSE,157,2.8,2.8,46,0.00,,,0.00,Rainwise IP-100,2014-01-26 11:07:00,
2014-01-26 05:12:00,48.1,29.0,29.92,SSE,157,1.6,3.0,46,0.00,,,0.00,Rainwise IP-100,2014-01-26 11:12:00,
2014-01-26 05:17:00,48.2,29.0,29.92,SSE,157,3.0,4.0,46,0.00,,,0.00,Rainwise IP-100,2014-01-26 11:17:00,
2014-01-26 05:22:00,48.1,29.0,29.92,SSE,157,2.1,5.0,46,0.00,,,0.00,Rainwise IP-100,2014-01-26 11:22:00,
2014-01-26 05:27:00,48.1,29.0,29.92,SSE,157,3.3,4.0,46,0.00,,,0.00,Rainwise IP-100,2014-01-26 11:27:00,
2014-01-26 05:32:00,48.0,28.0,29.92,South,180,2.1,4.0,45,0.00,,,0.00,Rainwise IP-100,2014-01-26 11:32:00,
2014-01-26 05:37:00,48.0,28.0,29.92,South,180,2.1,5.0,45,0.00,,,0.00,Rainwise IP-100,2014-01-26 11:37:00,
2014-01-26 05:42:00,48.2,28.0,29.91,SSE,157,3.5,5.0,45,0.00,,,0.00,Rainwise IP-100,2014-01-26 11:42:00,
2014-01-26 05:47:00,48.0,28.0,29.91,SSE,157,2.3,5.0,45,0.00,,,0.00,Rainwise IP-100,2014-01-26 11:47:00,
2014-01-26 05:52:00,48.0,28.0,29.91,SSE,157,2.3,4.0,45,0.00,,,0.00,Rainwise IP-100,2014-01-26 11:52:00,
2014-01-26 05:57:00,47.8,28.0,29.91,SSE,157,2.3,4.0,45,0.00,,,0.00,Rainwise IP-100,2014-01-26 11:57:00,
2014-01-26 06:02:00,47.7,28.0,29.91,SSE,157,2.8,4.0,45,0.00,,,0.00,Rainwise IP-100,2014-01-26 12:02:00,
2014-01-26 06:07:00,47.6,28.0,29.91,SSE,157,1.4,3.0,45,0.00,,,0.00,Rainwise IP-100,2014-01-26 12:07:00,
2014-01-26 06:12:00,47.2,28.0,29.91,South,180,0.0,3.0,46,0.00,,,0.00,Rainwise IP-100,2014-01-26 12:12:00,
2014-01-26 06:17:00,46.9,28.0,29.91,South,180,2.1,2.1,46,0.00,,,0.00,Rainwise IP-100,2014-01-26 12:17:00,
2014-01-26 06:22:00,46.6,28.0,29.91,South,180,1.6,3.0,46,0.00,,,0.00,Rainwise IP-100,2014-01-26 12:22:00,
2014-01-26 06:27:00,46.5,28.0,29.91,SSE,157,2.8,4.0,47,0.00,,,0.00,Rainwise IP-100,2014-01-26 12:27:00,
2014-01-26 06:32:00,46.5,28.0,29.91,SSE,157,1.6,3.0,47,0.00,,,0.00,Rainwise IP-100,2014-01-26 12:32:00,
2014-01-26 06:37:00,46.6,28.0,29.91,SSE,157,1.2,2.0,47,0.00,,,0.00,Rainwise IP-100,2014-01-26 12:37:00,
2014-01-26 06:42:00,46.6,28.0,29.90,SSE,157,1.4,1.4,47,0.00,,,0.00,Rainwise IP-100,2014-01-26 12:42:00,
2014-01-26 06:47:00,46.5,28.0,29.90,SSW,202,0.0,2.0,47,0.00,,,0.00,Rainwise IP-100,2014-01-26 12:47:00,
2014-01-26 06:52:00,46.4,28.0,29.90,SSW,202,0.0,2.0,47,0.00,,,0.00,Rainwise IP-100,2014-01-26 12:52:00,
2014-01-26 06:57:00,46.1,28.0,29.90,SSW,202,0.0,1.0,47,0.00,,,0.00,Rainwise IP-100,2014-01-26 12:57:00,
2014-01-26 07:02:00,45.8,28.0,29.90,SSW,202,0.0,1.0,48,0.00,,,0.00,Rainwise IP-100,2014-01-26 13:02:00,
2014-01-26 07:07:00,45.7,28.0,29.90,SSE,157,2.1,3.0,48,0.00,,,0.00,Rainwise IP-100,2014-01-26 13:07:00,
2014-01-26 07:12:00,45.9,28.0,29.90,SSE,157,2.8,3.0,47,0.00,,,0.00,Rainwise IP-100,2014-01-26 13:12:00,
2014-01-26 07:17:00,46.1,28.0,29.90,SSE,157,2.6,3.0,47,0.00,,,0.00,Rainwise IP-100,2014-01-26 13:17:00,
2014-01-26 07:22:00,46.0,28.0,29.90,SSE,157,2.8,4.0,47,0.00,,,0.00,Rainwise IP-100,2014-01-26 13:22:00,
2014-01-26 07:27:00,46.0,28.0,29.90,SSE,157,2.3,4.0,47,0.00,,,0.00,Rainwise IP-100,2014-01-26 13:27:00,
2014-01-26 07:32:00,45.9,28.0,29.90,SSE,157,2.8,4.0,47,0.00,,,0.00,Rainwise IP-100,2014-01-26 13:32:00,
2014-01-26 07:37:00,45.8,28.0,29.90,SSE,157,2.3,4.0,47,0.00,,,0.00,Rainwise IP-100,2014-01-26 13:37:00,
2014-01-26 07:42:00,45.8,28.0,29.90,SSE,157,3.3,7.0,47,0.00,,,0.00,Rainwise IP-100,2014-01-26 13:42:00,
2014-01-26 07:47:00,46.0,28.0,29.90,SSE,157,3.0,6.0,47,0.00,,,0.00,Rainwise IP-100,2014-01-26 13:47:00,
2014-01-26 07:52:00,46.0,28.0,29.90,SSE,157,3.3,5.0,47,0.00,,,0.00,Rainwise IP-100,2014-01-26 13:52:00,
2014-01-26 07:57:00,46.0,28.0,29.89,SE,135,3.3,5.0,47,0.00,,,0.00,Rainwise IP-100,2014-01-26 13:57:00,
2014-01-26 08:02:00,46.2,28.0,29.90,SSE,157,4.2,6.0,47,0.00,,,0.00,Rainwise IP-100,2014-01-26 14:02:00,
2014-01-26 08:07:00,46.7,28.0,29.90,SSE,157,3.5,6.0,47,0.00,,,0.00,Rainwise IP-100,2014-01-26 14:07:00,
2014-01-26 08:12:00,47.2,28.0,29.89,SSE,157,3.5,6.0,46,0.00,,,0.00,Rainwise IP-100,2014-01-26 14:12:00,
2014-01-26 08:17:00,47.5,28.0,29.89,SSE,157,5.6,6.0,46,0.00,,,0.00,Rainwise IP-100,2014-01-26 14:17:00,
2014-01-26 08:22:00,47.9,28.0,29.89,SSE,157,2.8,5.0,45,0.00,,,0.00,Rainwise IP-100,2014-01-26 14:22:00,
2014-01-26 08:27:00,48.4,28.0,29.90,SSE,157,4.9,6.0,45,0.00,,,0.00,Rainwise IP-100,2014-01-26 14:27:00,
2014-01-26 08:32:00,48.9,29.0,29.89,SSE,157,4.4,7.0,45,0.00,,,0.00,Rainwise IP-100,2014-01-26 14:32:00,
2014-01-26 08:37:00,49.3,28.0,29.89,SSE,157,4.7,7.0,44,0.00,,,0.00,Rainwise IP-100,2014-01-26 14:37:00,
2014-01-26 08:42:00,49.7,29.0,29.89,ESE,112,4.7,8.0,44,0.00,,,0.00,Rainwise IP-100,2014-01-26 14:42:00,
2014-01-26 08:47:00,50.1,29.0,29.89,SSE,157,9.3,9.3,44,0.00,,,0.00,Rainwise IP-100,2014-01-26 14:47:00,
2014-01-26 08:52:00,50.3,29.0,29.89,SSE,157,6.3,9.0,44,0.00,,,0.00,Rainwise IP-100,2014-01-26 14:52:00,
2014-01-26 08:57:00,50.6,29.0,29.89,South,180,6.3,10.0,44,0.00,,,0.00,Rainwise IP-100,2014-01-26 14:57:00,
2014-01-26 09:02:00,51.1,29.0,29.89,SSE,157,7.2,9.0,43,0.00,,,0.00,Rainwise IP-100,2014-01-26 15:02:00,
2014-01-26 09:07:00,51.6,29.0,29.88,SSE,157,6.3,9.0,42,0.00,,,0.00,Rainwise IP-100,2014-01-26 15:07:00,
2014-01-26 09:12:00,52.0,29.0,29.88,South,180,4.0,9.0,42,0.00,,,0.00,Rainwise IP-100,2014-01-26 15:12:00,
2014-01-26 09:17:00,52.3,29.0,29.88,South,180,6.5,10.0,41,0.00,,,0.00,Rainwise IP-100,2014-01-26 15:17:00,
2014-01-26 09:22:00,52.6,29.0,29.88,South,180,6.8,9.0,41,0.00,,,0.00,Rainwise IP-100,2014-01-26 15:22:00,
2014-01-26 09:27:00,53.1,29.0,29.88,South,180,6.5,11.0,41,0.00,,,0.00,Rainwise IP-100,2014-01-26 15:27:00,
2014-01-26 09:32:00,53.5,31.0,29.88,SSW,202,5.4,9.0,41,0.00,,,0.00,Rainwise IP-100,2014-01-26 15:32:00,
2014-01-26 09:37:00,53.8,31.0,29.87,SSE,157,7.7,9.0,41,0.00,,,0.00,Rainwise IP-100,2014-01-26 15:37:00,
2014-01-26 09:42:00,54.1,31.0,29.88,SSW,202,6.5,10.0,41,0.00,,,0.00,Rainwise IP-100,2014-01-26 15:42:00,
2014-01-26 09:47:00,54.4,32.0,29.88,SSW,202,7.9,9.0,41,0.00,,,0.00,Rainwise IP-100,2014-01-26 15:47:00,
2014-01-26 09:52:00,54.9,32.0,29.88,SSW,202,6.5,11.0,40,0.00,,,0.00,Rainwise IP-100,2014-01-26 15:52:00,
2014-01-26 09:57:00,55.4,32.0,29.88,SSW,202,7.2,8.0,40,0.00,,,0.00,Rainwise IP-100,2014-01-26 15:57:00,
2014-01-26 10:02:00,55.8,32.0,29.88,SW,225,1.6,10.0,39,0.00,,,0.00,Rainwise IP-100,2014-01-26 16:02:00,
2014-01-26 10:07:00,56.4,32.0,29.87,SSW,202,5.8,9.0,39,0.00,,,0.00,Rainwise IP-100,2014-01-26 16:07:00,
2014-01-26 10:12:00,57.0,32.0,29.88,SSW,202,5.6,11.0,39,0.00,,,0.00,Rainwise IP-100,2014-01-26 16:12:00,
2014-01-26 10:17:00,57.4,33.0,29.87,SSW,202,4.2,8.0,39,0.00,,,0.00,Rainwise IP-100,2014-01-26 16:17:00,
2014-01-26 10:22:00,58.0,33.0,29.88,SSW,202,5.6,11.0,38,0.00,,,0.00,Rainwise IP-100,2014-01-26 16:22:00,
2014-01-26 10:27:00,58.5,33.0,29.87,SSW,202,6.3,8.0,38,0.00,,,0.00,Rainwise IP-100,2014-01-26 16:27:00,
2014-01-26 10:32:00,58.9,33.0,29.87,SSW,202,6.8,10.0,38,0.00,,,0.00,Rainwise IP-100,2014-01-26 16:32:00,
2014-01-26 10:37:00,59.6,33.0,29.87,SSW,202,4.2,8.0,37,0.00,,,0.00,Rainwise IP-100,2014-01-26 16:37:00,
2014-01-26 10:42:00,60.5,35.0,29.87,SW,225,7.9,8.0,37,0.00,,,0.00,Rainwise IP-100,2014-01-26 16:42:00,
2014-01-26 10:47:00,61.2,33.0,29.87,WSW,247,5.8,8.0,36,0.00,,,0.00,Rainwise IP-100,2014-01-26 16:47:00,
2014-01-26 10:52:00,61.9,35.0,29.86,WSW,247,5.1,9.0,36,0.00,,,0.00,Rainwise IP-100,2014-01-26 16:52:00,
2014-01-26 10:57:00,62.3,35.0,29.86,WSW,247,5.6,11.0,35,0.00,,,0.00,Rainwise IP-100,2014-01-26 16:57:00,
2014-01-26 11:02:00,62.5,35.0,29.86,WSW,247,9.3,9.3,35,0.00,,,0.00,Rainwise IP-100,2014-01-26 17:02:00,
2014-01-26 11:07:00,63.0,35.0,29.86,WSW,247,3.7,10.0,35,0.00,,,0.00,Rainwise IP-100,2014-01-26 17:07:00,
2014-01-26 11:12:00,63.6,35.0,29.85,WSW,247,8.2,8.2,34,0.00,,,0.00,Rainwise IP-100,2014-01-26 17:12:00,
2014-01-26 11:17:00,64.4,36.0,29.84,SW,225,5.6,8.0,34,0.00,,,0.00,Rainwise IP-100,2014-01-26 17:17:00,
2014-01-26 11:22:00,65.2,36.0,29.84,SSW,202,4.2,7.0,34,0.00,,,0.00,Rainwise IP-100,2014-01-26 17:22:00,
2014-01-26 11:27:00,66.2,36.0,29.84,South,180,5.1,8.0,33,0.00,,,0.00,Rainwise IP-100,2014-01-26 17:27:00,
2014-01-26 11:32:00,67.3,36.0,29.84,SW,225,3.7,7.0,32,0.00,,,0.00,Rainwise IP-100,2014-01-26 17:32:00,
2014-01-26 11:37:00,68.3,36.0,29.83,SSW,202,12.6,12.6,31,0.00,,,0.00,Rainwise IP-100,2014-01-26 17:37:00,
2014-01-26 11:42:00,69.2,37.0,29.83,SW,225,5.4,15.0,30,0.00,,,0.00,Rainwise IP-100,2014-01-26 17:42:00,
2014-01-26 11:47:00,69.7,36.0,29.82,WSW,247,15.9,15.9,29,0.00,,,0.00,Rainwise IP-100,2014-01-26 17:47:00,
2014-01-26 11:52:00,70.2,36.0,29.82,WSW,247,12.6,16.0,29,0.00,,,0.00,Rainwise IP-100,2014-01-26 17:52:00,
2014-01-26 11:57:00,70.5,36.0,29.81,WSW,247,6.8,19.0,28,0.00,,,0.00,Rainwise IP-100,2014-01-26 17:57:00,
2014-01-26 12:02:00,70.8,36.0,29.81,West,270,8.2,17.0,28,0.00,,,0.00,Rainwise IP-100,2014-01-26 18:02:00,
2014-01-26 12:07:00,71.1,36.0,29.81,SSW,202,5.1,16.0,27,0.00,,,0.00,Rainwise IP-100,2014-01-26 18:07:00,
2014-01-26 12:12:00,71.4,36.0,29.81,WSW,247,11.7,20.0,27,0.00,,,0.00,Rainwise IP-100,2014-01-26 18:12:00,
2014-01-26 12:17:00,71.4,36.0,29.81,WSW,247,14.9,15.0,27,0.00,,,0.00,Rainwise IP-100,2014-01-26 18:17:00,
2014-01-26 12:22:00,71.5,36.0,29.80,WSW,247,10.5,17.0,27,0.00,,,0.00,Rainwise IP-100,2014-01-26 18:22:00,
2014-01-26 12:27:00,71.8,35.0,29.80,WSW,247,6.3,19.0,26,0.00,,,0.00,Rainwise IP-100,2014-01-26 18:27:00,
2014-01-26 12:32:00,72.0,36.0,29.79,SW,225,8.6,15.0,26,0.00,,,0.00,Rainwise IP-100,2014-01-26 18:32:00,
2014-01-26 12:37:00,71.9,36.0,29.79,West,270,9.3,17.0,26,0.00,,,0.00,Rainwise IP-100,2014-01-26 18:37:00,
2014-01-26 12:42:00,72.0,35.0,29.79,WSW,247,8.2,20.0,25,0.00,,,0.00,Rainwise IP-100,2014-01-26 18:42:00,
2014-01-26 12:47:00,72.4,35.0,29.78,SW,225,5.6,17.0,25,0.00,,,0.00,Rainwise IP-100,2014-01-26 18:47:00,
2014-01-26 12:52:00,72.8,33.0,29.78,SSW,202,17.0,18.0,24,0.00,,,0.00,Rainwise IP-100,2014-01-26 18:52:00,
2014-01-26 12:57:00,73.2,33.0,29.78,WSW,247,11.0,20.0,23,0.00,,,0.00,Rainwise IP-100,2014-01-26 18:57:00,
2014-01-26 13:02:00,73.1,33.0,29.77,West,270,10.7,16.0,23,0.00,,,0.00,Rainwise IP-100,2014-01-26 19:02:00,
2014-01-26 13:07:00,73.3,33.0,29.77,WSW,247,7.0,17.0,23,0.00,,,0.00,Rainwise IP-100,2014-01-26 19:07:00,
2014-01-26 13:12:00,73.7,32.0,29.76,West,270,6.5,18.0,22,0.00,,,0.00,Rainwise IP-100,2014-01-26 19:12:00,
2014-01-26 13:17:00,73.7,32.0,29.75,West,270,13.1,21.0,22,0.00,,,0.00,Rainwise IP-100,2014-01-26 19:17:00,
2014-01-26 13:22:00,73.6,32.0,29.75,SW,225,10.3,18.0,21,0.00,,,0.00,Rainwise IP-100,2014-01-26 19:22:00,
2014-01-26 13:27:00,73.9,32.0,29.75,SW,225,5.1,16.0,21,0.00,,,0.00,Rainwise IP-100,2014-01-26 19:27:00,
2014-01-26 13:32:00,74.2,31.0,29.75,WSW,247,7.7,19.0,20,0.00,,,0.00,Rainwise IP-100,2014-01-26 19:32:00,
2014-01-26 13:37:00,74.3,31.0,29.75,SSW,202,4.4,14.0,20,0.00,,,0.00,Rainwise IP-100,2014-01-26 19:37:00,
2014-01-26 13:42:00,74.8,31.0,29.74,WSW,247,8.6,14.0,20,0.00,,,0.00,Rainwise IP-100,2014-01-26 19:42:00,
2014-01-26 13:47:00,75.1,32.0,29.74,WSW,247,5.1,14.0,20,0.00,,,0.00,Rainwise IP-100,2014-01-26 19:47:00,
2014-01-26 13:52:00,75.1,32.0,29.73,WSW,247,9.1,18.0,20,0.00,,,0.00,Rainwise IP-100,2014-01-26 19:52:00,
2014-01-26 13:57:00,75.2,32.0,29.73,WSW,247,7.9,14.0,20,0.00,,,0.00,Rainwise IP-100,2014-01-26 19:57:00,
2014-01-26 14:02:00,75.5,32.0,29.73,West,270,5.1,12.0,20,0.00,,,0.00,Rainwise IP-100,2014-01-26 20:02:00,
2014-01-26 14:07:00,75.7,31.0,29.73,WSW,247,11.7,19.0,19,0.00,,,0.00,Rainwise IP-100,2014-01-26 20:07:00,
2014-01-26 14:12:00,75.7,31.0,29.73,WSW,247,14.0,18.0,19,0.00,,,0.00,Rainwise IP-100,2014-01-26 20:12:00,
2014-01-26 14:17:00,75.6,31.0,29.73,West,270,8.9,17.0,19,0.00,,,0.00,Rainwise IP-100,2014-01-26 20:17:00,
2014-01-26 14:22:00,75.5,31.0,29.72,WNW,292,5.4,17.0,19,0.00,,,0.00,Rainwise IP-100,2014-01-26 20:22:00,
2014-01-26 14:27:00,75.6,31.0,29.72,WSW,247,10.3,16.0,19,0.00,,,0.00,Rainwise IP-100,2014-01-26 20:27:00,
2014-01-26 14:32:00,76.1,31.0,29.71,SSW,202,10.0,17.0,19,0.00,,,0.00,Rainwise IP-100,2014-01-26 20:32:00,
2014-01-26 14:37:00,76.3,31.0,29.72,WSW,247,18.0,18.0,19,0.00,,,0.00,Rainwise IP-100,2014-01-26 20:37:00,
2014-01-26 14:42:00,76.3,31.0,29.71,WNW,292,19.4,22.0,19,0.00,,,0.00,Rainwise IP-100,2014-01-26 20:42:00,
2014-01-26 14:47:00,76.4,31.0,29.71,West,270,15.6,23.0,18,0.00,,,0.00,Rainwise IP-100,2014-01-26 20:47:00,
2014-01-26 14:52:00,76.5,31.0,29.71,WSW,247,12.4,18.0,18,0.00,,,0.00,Rainwise IP-100,2014-01-26 20:52:00,
2014-01-26 14:57:00,76.6,31.0,29.70,WNW,292,11.7,22.0,18,0.00,,,0.00,Rainwise IP-100,2014-01-26 20:57:00,
2014-01-26 15:02:00,76.8,31.0,29.71,WSW,247,12.8,26.0,18,0.00,,,0.00,Rainwise IP-100,2014-01-26 21:02:00,
2014-01-26 15:07:00,76.9,29.0,29.71,WSW,247,10.7,19.0,17,0.00,,,0.00,Rainwise IP-100,2014-01-26 21:07:00,
2014-01-26 15:12:00,77.2,29.0,29.70,WSW,247,8.6,21.0,17,0.00,,,0.00,Rainwise IP-100,2014-01-26 21:12:00,
2014-01-26 15:17:00,77.3,28.0,29.71,WSW,247,9.1,16.0,16,0.00,,,0.00,Rainwise IP-100,2014-01-26 21:17:00,
2014-01-26 15:22:00,77.3,28.0,29.70,WSW,247,11.2,17.0,16,0.00,,,0.00,Rainwise IP-100,2014-01-26 21:22:00,
2014-01-26 15:27:00,77.6,26.0,29.70,WNW,292,16.8,20.0,15,0.00,,,0.00,Rainwise IP-100,2014-01-26 21:27:00,
2014-01-26 15:32:00,77.7,24.0,29.70,WSW,247,12.6,23.0,14,0.00,,,0.00,Rainwise IP-100,2014-01-26 21:32:00,
2014-01-26 15:37:00,77.8,24.0,29.71,WSW,247,5.4,21.0,14,0.00,,,0.00,Rainwise IP-100,2014-01-26 21:37:00,
2014-01-26 15:42:00,77.8,24.0,29.70,WSW,247,9.3,21.0,14,0.00,,,0.00,Rainwise IP-100,2014-01-26 21:42:00,
2014-01-26 15:47:00,77.7,24.0,29.70,SW,225,7.2,17.0,14,0.00,,,0.00,Rainwise IP-100,2014-01-26 21:47:00,
2014-01-26 15:52:00,77.7,24.0,29.70,WSW,247,11.9,19.0,14,0.00,,,0.00,Rainwise IP-100,2014-01-26 21:52:00,
2014-01-26 15:57:00,77.8,24.0,29.70,WSW,247,9.6,19.0,14,0.00,,,0.00,Rainwise IP-100,2014-01-26 21:57:00,
2014-01-26 16:02:00,77.9,26.0,29.70,WSW,247,15.6,20.0,14,0.00,,,0.00,Rainwise IP-100,2014-01-26 22:02:00,
2014-01-26 16:07:00,77.8,24.0,29.70,SW,225,7.9,21.0,14,0.00,,,0.00,Rainwise IP-100,2014-01-26 22:07:00,
2014-01-26 16:12:00,77.7,24.0,29.70,West,270,11.0,23.0,14,0.00,,,0.00,Rainwise IP-100,2014-01-26 22:12:00,
2014-01-26 16:17:00,77.5,24.0,29.70,WSW,247,12.1,20.0,14,0.00,,,0.00,Rainwise IP-100,2014-01-26 22:17:00,
2014-01-26 16:22:00,77.3,23.0,29.70,West,270,10.0,23.0,13,0.00,,,0.00,Rainwise IP-100,2014-01-26 22:22:00,
2014-01-26 16:27:00,77.2,23.0,29.70,WSW,247,19.4,23.0,13,0.00,,,0.00,Rainwise IP-100,2014-01-26 22:27:00,
2014-01-26 16:32:00,77.0,24.0,29.71,West,270,8.2,20.0,14,0.00,,,0.00,Rainwise IP-100,2014-01-26 22:32:00,
2014-01-26 16:37:00,76.8,24.0,29.71,West,270,11.7,18.0,14,0.00,,,0.00,Rainwise IP-100,2014-01-26 22:37:00,
2014-01-26 16:42:00,76.6,24.0,29.71,WSW,247,10.0,17.0,14,0.00,,,0.00,Rainwise IP-100,2014-01-26 22:42:00,
2014-01-26 16:47:00,76.3,24.0,29.71,WSW,247,12.4,19.0,14,0.00,,,0.00,Rainwise IP-100,2014-01-26 22:47:00,
2014-01-26 16:52:00,76.1,24.0,29.71,WNW,292,7.9,18.0,14,0.00,,,0.00,Rainwise IP-100,2014-01-26 22:52:00,
2014-01-26 16:57:00,76.0,24.0,29.71,WSW,247,4.7,14.0,14,0.00,,,0.00,Rainwise IP-100,2014-01-26 22:57:00,
2014-01-26 17:02:00,75.8,23.0,29.71,West,270,10.0,14.0,14,0.00,,,0.00,Rainwise IP-100,2014-01-26 23:02:00,
2014-01-26 17:07:00,75.6,23.0,29.72,WSW,247,9.1,12.0,14,0.00,,,0.00,Rainwise IP-100,2014-01-26 23:07:00,
2014-01-26 17:12:00,75.4,23.0,29.72,WSW,247,7.0,14.0,14,0.00,,,0.00,Rainwise IP-100,2014-01-26 23:12:00,
2014-01-26 17:17:00,75.1,23.0,29.72,West,270,4.0,16.0,14,0.00,,,0.00,Rainwise IP-100,2014-01-26 23:17:00,
2014-01-26 17:22:00,74.8,24.0,29.72,West,270,0.0,10.0,15,0.00,,,0.00,Rainwise IP-100,2014-01-26 23:22:00,
2014-01-26 17:27:00,74.4,24.0,29.72,WSW,247,3.0,13.0,15,0.00,,,0.00,Rainwise IP-100,2014-01-26 23:27:00,
2014-01-26 17:32:00,73.9,24.0,29.73,NNW,337,4.4,11.0,15,0.00,,,0.00,Rainwise IP-100,2014-01-26 23:32:00,
2014-01-26 17:37:00,73.3,23.0,29.73,West,270,5.8,11.0,15,0.00,,,0.00,Rainwise IP-100,2014-01-26 23:37:00,
2014-01-26 17:42:00,72.8,23.0,29.74,WSW,247,4.0,12.0,15,0.00,,,0.00,Rainwise IP-100,2014-01-26 23:42:00,
2014-01-26 17:47:00,72.3,23.0,29.73,WNW,292,1.9,6.0,15,0.00,,,0.00,Rainwise IP-100,2014-01-26 23:47:00,
2014-01-26 17:52:00,71.6,23.0,29.74,WNW,292,0.0,4.0,15,0.00,,,0.00,Rainwise IP-100,2014-01-26 23:52:00,
2014-01-26 17:57:00,70.9,23.0,29.74,WNW,292,1.2,5.0,16,0.00,,,0.00,Rainwise IP-100,2014-01-26 23:57:00,
2014-01-26 18:02:00,70.2,23.0,29.74,WNW,292,2.1,4.0,16,0.00,,,0.00,Rainwise IP-100,2014-01-27 00:02:00,
2014-01-26 18:07:00,69.5,23.0,29.75,WNW,292,0.0,4.0,16,0.00,,,0.00,Rainwise IP-100,2014-01-27 00:07:00,
2014-01-26 18:12:00,68.7,23.0,29.75,WNW,292,0.0,3.0,17,0.00,,,0.00,Rainwise IP-100,2014-01-27 00:12:00,
2014-01-26 18:17:00,67.9,23.0,29.75,WNW,292,0.0,3.0,17,0.00,,,0.00,Rainwise IP-100,2014-01-27 00:17:00,
2014-01-26 18:22:00,67.0,23.0,29.76,WNW,292,0.0,1.0,18,0.00,,,0.00,Rainwise IP-100,2014-01-27 00:22:00,
2014-01-26 18:27:00,66.0,23.0,29.76,WNW,292,0.0,1.0,18,0.00,,,0.00,Rainwise IP-100,2014-01-27 00:27:00,
2014-01-26 18:32:00,65.2,23.0,29.76,WNW,292,1.4,1.4,19,0.00,,,0.00,Rainwise IP-100,2014-01-27 00:32:00,
2014-01-26 18:37:00,64.3,21.0,29.76,WNW,292,0.0,1.0,19,0.00,,,0.00,Rainwise IP-100,2014-01-27 00:37:00,
2014-01-26 18:42:00,63.6,23.0,29.76,WNW,292,0.0,2.0,20,0.00,,,0.00,Rainwise IP-100,2014-01-27 00:42:00,
2014-01-26 18:47:00,63.3,23.0,29.76,NW,315,3.0,5.0,21,0.00,,,0.00,Rainwise IP-100,2014-01-27 00:47:00,
2014-01-26 18:52:00,63.3,23.0,29.77,NW,315,1.9,3.0,21,0.00,,,0.00,Rainwise IP-100,2014-01-27 00:52:00,
2014-01-26 18:57:00,63.3,23.0,29.77,NW,315,1.9,3.0,21,0.00,,,0.00,Rainwise IP-100,2014-01-27 00:57:00,
2014-01-26 19:02:00,63.2,23.0,29.77,NW,315,2.1,3.0,21,0.00,,,0.00,Rainwise IP-100,2014-01-27 01:02:00,
2014-01-26 19:07:00,62.9,23.0,29.77,NW,315,0.0,3.0,21,0.00,,,0.00,Rainwise IP-100,2014-01-27 01:07:00,
2014-01-26 19:12:00,62.3,23.0,29.78,NNW,337,0.0,4.0,21,0.00,,,0.00,Rainwise IP-100,2014-01-27 01:12:00,
2014-01-26 19:17:00,62.0,23.0,29.79,NW,315,0.0,4.0,22,0.00,,,0.00,Rainwise IP-100,2014-01-27 01:17:00,
2014-01-26 19:22:00,62.1,23.0,29.79,NW,315,5.8,6.0,22,0.00,,,0.00,Rainwise IP-100,2014-01-27 01:22:00,
2014-01-26 19:27:00,62.6,23.0,29.79,NNW,337,3.0,6.0,21,0.00,,,0.00,Rainwise IP-100,2014-01-27 01:27:00,
2014-01-26 19:32:00,63.2,23.0,29.79,NW,315,4.9,7.0,20,0.00,,,0.00,Rainwise IP-100,2014-01-27 01:32:00,
2014-01-26 19:37:00,63.5,23.0,29.79,NNW,337,3.7,7.0,20,0.00,,,0.00,Rainwise IP-100,2014-01-27 01:37:00,
2014-01-26 19:42:00,63.7,21.0,29.79,NNW,337,1.9,7.0,19,0.00,,,0.00,Rainwise IP-100,2014-01-27 01:42:00,
2014-01-26 19:47:00,63.8,21.0,29.80,NW,315,4.2,7.0,19,0.00,,,0.00,Rainwise IP-100,2014-01-27 01:47:00,
2014-01-26 19:52:00,63.8,21.0,29.80,NNW,337,3.0,7.0,19,0.00,,,0.00,Rainwise IP-100,2014-01-27 01:52:00,
2014-01-26 19:57:00,63.7,21.0,29.80,NNW,337,3.3,7.0,19,0.00,,,0.00,Rainwise IP-100,2014-01-27 01:57:00,
2014-01-26 20:02:00,63.5,21.0,29.80,NW,315,3.0,6.0,19,0.00,,,0.00,Rainwise IP-100,2014-01-27 02:02:00,
2014-01-26 20:07:00,63.2,21.0,29.80,NW,315,4.2,7.0,19,0.00,,,0.00,Rainwise IP-100,2014-01-27 02:07:00,
2014-01-26 20:12:00,63.0,21.0,29.80,NW,315,3.7,8.0,19,0.00,,,0.00,Rainwise IP-100,2014-01-27 02:12:00,
2014-01-26 20:17:00,62.7,21.0,29.81,NW,315,5.1,5.1,19,0.00,,,0.00,Rainwise IP-100,2014-01-27 02:17:00,
2014-01-26 20:22:00,62.5,21.0,29.81,NNW,337,4.0,6.0,19,0.00,,,0.00,Rainwise IP-100,2014-01-27 02:22:00,
2014-01-26 20:27:00,62.3,21.0,29.82,NNW,337,3.0,6.0,19,0.00,,,0.00,Rainwise IP-100,2014-01-27 02:27:00,
2014-01-26 20:32:00,62.0,21.0,29.82,NNW,337,3.3,5.0,20,0.00,,,0.00,Rainwise IP-100,2014-01-27 02:32:00,
2014-01-26 20:37:00,61.6,21.0,29.82,NNW,337,1.2,5.0,20,0.00,,,0.00,Rainwise IP-100,2014-01-27 02:37:00,
2014-01-26 20:42:00,61.0,21.0,29.81,NNW,337,2.8,4.0,20,0.00,,,0.00,Rainwise IP-100,2014-01-27 02:42:00,
2014-01-26 20:47:00,60.2,18.0,29.82,NNW,337,1.6,4.0,20,0.00,,,0.00,Rainwise IP-100,2014-01-27 02:47:00,
2014-01-26 20:52:00,59.5,21.0,29.82,North,360,2.6,4.0,21,0.00,,,0.00,Rainwise IP-100,2014-01-27 02:52:00,
2014-01-26 20:57:00,58.9,21.0,29.82,NNW,337,2.6,5.0,21,0.00,,,0.00,Rainwise IP-100,2014-01-27 02:57:00,
2014-01-26 21:02:00,58.5,21.0,29.82,North,360,0.0,4.0,22,0.00,,,0.00,Rainwise IP-100,2014-01-27 03:02:00,
2014-01-26 21:07:00,58.2,21.0,29.82,North,360,1.2,3.0,22,0.00,,,0.00,Rainwise IP-100,2014-01-27 03:07:00,
2014-01-26 21:12:00,57.7,21.0,29.82,North,360,1.4,3.0,23,0.00,,,0.00,Rainwise IP-100,2014-01-27 03:12:00,
2014-01-26 21:17:00,57.4,21.0,29.83,NNW,337,2.1,3.0,23,0.00,,,0.00,Rainwise IP-100,2014-01-27 03:17:00,
2014-01-26 21:22:00,57.0,21.0,29.83,North,360,2.3,3.0,23,0.00,,,0.00,Rainwise IP-100,2014-01-27 03:22:00,
2014-01-26 21:27:00,56.6,21.0,29.83,NNW,337,1.9,3.0,24,0.00,,,0.00,Rainwise IP-100,2014-01-27 03:27:00,
2014-01-26 21:32:00,56.4,21.0,29.83,NNW,337,1.6,4.0,24,0.00,,,0.00,Rainwise IP-100,2014-01-27 03:32:00,
2014-01-26 21:37:00,56.4,21.0,29.83,NNW,337,2.1,4.0,24,0.00,,,0.00,Rainwise IP-100,2014-01-27 03:37:00,
2014-01-26 21:42:00,56.3,21.0,29.84,NNW,337,2.6,3.0,24,0.00,,,0.00,Rainwise IP-100,2014-01-27 03:42:00,
2014-01-26 21:47:00,56.3,21.0,29.84,NNW,337,4.2,6.0,24,0.00,,,0.00,Rainwise IP-100,2014-01-27 03:47:00,
2014-01-26 21:52:00,56.3,21.0,29.84,NNW,337,2.6,4.0,24,0.00,,,0.00,Rainwise IP-100,2014-01-27 03:52:00,
2014-01-26 21:57:00,56.3,21.0,29.83,NNW,337,2.8,4.0,24,0.00,,,0.00,Rainwise IP-100,2014-01-27 03:57:00,
2014-01-26 22:02:00,56.4,21.0,29.84,North,360,2.8,5.0,24,0.00,,,0.00,Rainwise IP-100,2014-01-27 04:02:00,
2014-01-26 22:07:00,56.4,21.0,29.84,NNW,337,1.9,5.0,24,0.00,,,0.00,Rainwise IP-100,2014-01-27 04:07:00,
2014-01-26 22:12:00,56.6,21.0,29.84,NNW,337,3.7,6.0,24,0.00,,,0.00,Rainwise IP-100,2014-01-27 04:12:00,
2014-01-26 22:17:00,57.0,21.0,29.84,NNW,337,2.3,4.0,24,0.00,,,0.00,Rainwise IP-100,2014-01-27 04:17:00,
2014-01-26 22:22:00,57.1,21.0,29.84,North,360,3.3,6.0,24,0.00,,,0.00,Rainwise IP-100,2014-01-27 04:22:00,
2014-01-26 22:27:00,57.0,21.0,29.84,NW,315,4.2,7.0,23,0.00,,,0.00,Rainwise IP-100,2014-01-27 04:27:00,
2014-01-26 22:32:00,57.0,21.0,29.84,NNW,337,2.1,5.0,23,0.00,,,0.00,Rainwise IP-100,2014-01-27 04:32:00,
2014-01-26 22:37:00,56.8,21.0,29.84,NNW,337,2.8,6.0,23,0.00,,,0.00,Rainwise IP-100,2014-01-27 04:37:00,
2014-01-26 22:42:00,56.5,21.0,29.85,NW,315,2.1,4.0,23,0.00,,,0.00,Rainwise IP-100,2014-01-27 04:42:00,
2014-01-26 22:47:00,56.2,21.0,29.85,NW,315,3.3,5.0,24,0.00,,,0.00,Rainwise IP-100,2014-01-27 04:47:00,
2014-01-26 22:52:00,56.0,21.0,29.85,NW,315,4.4,5.0,24,0.00,,,0.00,Rainwise IP-100,2014-01-27 04:52:00,
2014-01-26 22:57:00,55.8,21.0,29.85,NNW,337,2.8,5.0,24,0.00,,,0.00,Rainwise IP-100,2014-01-27 04:57:00,
2014-01-26 23:01:00,55.5,21.0,29.85,NW,315,1.6,4.0,24,0.00,,,0.00,Rainwise IP-100,2014-01-27 05:01:00,
2014-01-26 23:02:00,55.5,21.0,29.86,NW,315,3.0,4.0,24,0.00,,,0.00,Rainwise IP-100,2014-01-27 05:02:00,
2014-01-26 23:07:00,55.1,21.0,29.85,NNW,337,2.6,4.0,25,0.00,,,0.00,Rainwise IP-100,2014-01-27 05:07:00,
2014-01-26 23:12:00,54.8,21.0,29.86,NW,315,2.6,7.0,25,0.00,,,0.00,Rainwise IP-100,2014-01-27 05:12:00,
2014-01-26 23:17:00,54.6,21.0,29.85,NW,315,0.0,4.0,25,0.00,,,0.00,Rainwise IP-100,2014-01-27 05:17:00,
2014-01-26 23:22:00,54.2,21.0,29.86,NW,315,0.0,3.0,25,0.00,,,0.00,Rainwise IP-100,2014-01-27 05:22:00,
2014-01-26 23:27:00,53.5,21.0,29.86,NW,315,0.0,1.0,26,0.00,,,0.00,Rainwise IP-100,2014-01-27 05:27:00,
2014-01-26 23:32:00,52.8,18.0,29.86,NW,315,1.2,3.0,26,0.00,,,0.00,Rainwise IP-100,2014-01-27 05:32:00,
2014-01-26 23:37:00,52.0,21.0,29.86,NW,315,0.0,1.0,27,0.00,,,0.00,Rainwise IP-100,2014-01-27 05:37:00,
2014-01-26 23:42:00,51.3,18.0,29.86,NW,315,0.0,1.0,27,0.00,,,0.00,Rainwise IP-100,2014-01-27 05:42:00,
2014-01-26 23:47:00,50.7,18.0,29.86,NW,315,1.4,1.4,28,0.00,,,0.00,Rainwise IP-100,2014-01-27 05:47:00,
2014-01-26 23:52:00,50.6,18.0,29.87,NW,315,1.9,3.0,28,0.00,,,0.00,Rainwise IP-100,2014-01-27 05:52:00,
2014-01-26 23:57:00,50.7,21.0,29.87,NNW,337,2.3,4.0,29,0.00,,,0.00,Rainwise IP-100,2014-01-27 05:57:00,